Strona główna
METAR-TAF:

METAR-TAF

Lotnisko :

Danbury Municipal Airport

Danbury, Connecticut, Stany Zjednoczone

Szerokość geograficzna: 41-22-18N, Długość geograficzna: 073-29-04W, wysokość: 139 m

Aktualna obserwacja pogody

Raport powstał 44 minut temu, godzina 22:53 UTC
Wiatr 3 kt od północno-północny zachód
Temperatura -2°C
Wilgotność 43%
Ciśnienie 1034 hPa
Widzialność: 16.1 km
bezchmurnie

METAR: KDXR 192253Z 34003KT 10SM CLR M02/M13 A3052 RMK AO2 SLP340 T10221133

czas: 18:37 (23:37 UTC)


TAF: brakujący

Obserwacja i prognoza pogody dla ponad 4000 lotnisk (raport METAR i TAF).

Dostępne stacje oznaczono żółtymi i czerwonymi punktami na mapie.

Najedź kursorem aby zobaczyć nazwę stacji.

Kliknij aby zobaczyć obserwacje i prognozy pogody.

Aby zmienić mapę: kliknij na zielony przycisk z czarnym krzyżykiem, aby powiększyć; na zielony przycisk z myślnikiem, aby pomniejszyć; na zielone strzałki, aby przejść do map sąsiednich.


METAR-TAF: